createdAt,value
2023-03-08T00:00:01.753Z,925.86
2023-03-08T00:01:01.692Z,925.91
2023-03-08T00:02:01.660Z,925.88
2023-03-08T00:03:01.645Z,925.68
2023-03-08T00:04:01.735Z,925.85
2023-03-08T00:05:01.668Z,925.80
2023-03-08T00:06:01.618Z,925.87
2023-03-08T00:07:01.620Z,925.85
2023-03-08T00:08:01.609Z,925.78
2023-03-08T00:09:01.605Z,925.68
2023-03-08T00:10:01.560Z,925.71
2023-03-08T00:11:01.552Z,925.65
2023-03-08T00:12:01.753Z,925.80
2023-03-08T00:13:01.536Z,925.66
2023-03-08T00:14:01.539Z,925.64
2023-03-08T00:15:01.515Z,925.61
2023-03-08T00:16:01.729Z,925.63
2023-03-08T00:17:01.511Z,925.59
2023-03-08T00:18:01.567Z,925.55
2023-03-08T00:19:01.481Z,925.56
2023-03-08T00:20:01.455Z,925.62
2023-03-08T00:21:01.466Z,925.56
2023-03-08T00:22:01.493Z,925.58
2023-03-08T00:23:01.426Z,925.55
2023-03-08T00:24:01.470Z,925.60
2023-03-08T00:25:01.409Z,925.55
2023-03-08T00:26:01.407Z,925.56
2023-03-08T00:27:01.388Z,925.63
2023-03-08T00:28:01.388Z,925.61
2023-03-08T00:29:01.385Z,925.65
2023-03-08T00:30:01.577Z,925.64
2023-03-08T00:31:01.396Z,925.65
2023-03-08T00:32:01.323Z,925.64
2023-03-08T00:33:01.356Z,925.64
2023-03-08T00:34:01.323Z,925.59
2023-03-08T00:35:01.337Z,925.63
2023-03-08T00:36:01.475Z,925.66
2023-03-08T00:37:01.281Z,925.74
2023-03-08T00:38:01.266Z,925.66
2023-03-08T00:39:01.266Z,925.64
2023-03-08T00:40:01.322Z,925.78
2023-03-08T00:41:01.328Z,925.77
2023-03-08T00:42:01.238Z,925.79
2023-03-08T00:43:01.221Z,925.81
2023-03-08T00:44:01.205Z,925.85
2023-03-08T00:45:01.249Z,925.85
2023-03-08T00:46:01.215Z,925.79
2023-03-08T00:47:01.292Z,925.78
2023-03-08T00:48:01.193Z,925.72
2023-03-08T00:49:01.169Z,925.85
2023-03-08T00:50:01.166Z,925.82
2023-03-08T00:51:01.126Z,925.87
2023-03-08T00:52:01.257Z,925.82
2023-03-08T00:53:01.197Z,925.88
2023-03-08T00:54:01.156Z,925.85
2023-03-08T00:55:01.126Z,925.88
2023-03-08T00:56:01.151Z,925.80
2023-03-08T00:57:01.067Z,925.79
2023-03-08T00:58:01.150Z,925.83
2023-03-08T00:59:01.057Z,925.80
2023-03-08T01:00:01.096Z,925.77
2023-03-08T01:01:01.104Z,925.81
2023-03-08T01:02:01.038Z,925.79
2023-03-08T01:03:01.082Z,925.78
2023-03-08T01:04:01.004Z,925.80
2023-03-08T01:05:00.995Z,925.69
2023-03-08T01:06:00.999Z,925.75
2023-03-08T01:07:01.011Z,925.69
2023-03-08T01:08:00.957Z,925.65
2023-03-08T01:09:01.020Z,925.63
2023-03-08T01:10:01.014Z,925.65
2023-03-08T01:11:00.956Z,925.66
2023-03-08T01:12:01.057Z,925.74
2023-03-08T01:13:00.925Z,925.74
2023-03-08T01:14:00.941Z,925.71
2023-03-08T01:15:00.908Z,925.73
2023-03-08T01:16:01.031Z,925.79
2023-03-08T01:17:12.445Z,925.78
2023-03-08T01:18:00.854Z,925.75
2023-03-08T01:19:00.897Z,925.76
2023-03-08T01:20:00.894Z,925.76
2023-03-08T01:21:00.863Z,925.72
2023-03-08T01:22:00.830Z,925.72
2023-03-08T01:23:00.900Z,925.60
2023-03-08T01:24:00.805Z,925.66
2023-03-08T01:25:00.827Z,925.61
2023-03-08T01:26:00.794Z,925.61
2023-03-08T01:27:00.828Z,925.53
2023-03-08T01:28:00.785Z,925.53
2023-03-08T01:29:00.778Z,925.49
2023-03-08T01:30:00.744Z,925.37
2023-03-08T01:31:00.714Z,925.49
2023-03-08T01:32:00.695Z,925.52
2023-03-08T01:33:00.719Z,925.47
2023-03-08T01:34:00.758Z,925.51
2023-03-08T01:35:00.763Z,925.52
2023-03-08T01:36:00.677Z,925.46
2023-03-08T01:37:00.847Z,925.51
2023-03-08T01:38:00.641Z,925.49
2023-03-08T01:39:00.679Z,925.48
2023-03-08T01:40:00.633Z,925.47
2023-03-08T01:41:00.622Z,925.50
2023-03-08T01:42:00.597Z,925.52
2023-03-08T01:43:00.653Z,925.48
2023-03-08T01:44:00.601Z,925.47
2023-03-08T01:45:00.582Z,925.46
2023-03-08T01:46:00.572Z,925.43
2023-03-08T01:47:00.627Z,925.43
2023-03-08T01:48:00.544Z,925.44
2023-03-08T01:49:00.516Z,925.40
2023-03-08T01:50:00.538Z,925.38
2023-03-08T01:51:00.508Z,925.35
2023-03-08T01:52:00.502Z,925.32
2023-03-08T01:53:00.534Z,925.28
2023-03-08T01:54:00.492Z,925.31
2023-03-08T01:55:00.460Z,925.28
2023-03-08T01:56:00.460Z,925.27
2023-03-08T01:57:00.441Z,925.26
2023-03-08T01:58:00.423Z,925.24
2023-03-08T01:59:00.455Z,925.24
2023-03-08T02:00:00.442Z,925.27
2023-03-08T02:01:00.484Z,925.24
2023-03-08T02:02:00.390Z,925.22
2023-03-08T02:03:00.427Z,925.21
2023-03-08T02:04:00.792Z,925.09
2023-03-08T02:05:00.397Z,925.15
2023-03-08T02:06:00.344Z,925.23
2023-03-08T02:07:00.349Z,925.13
2023-03-08T02:08:00.369Z,925.18
2023-03-08T02:09:00.310Z,925.13
2023-03-08T02:10:00.308Z,925.18
2023-03-08T02:11:00.311Z,925.19
2023-03-08T02:12:00.284Z,925.11
2023-03-08T02:13:00.299Z,925.09
2023-03-08T02:14:00.283Z,925.13
2023-03-08T02:15:00.329Z,925.07
2023-03-08T02:16:00.276Z,925.07
2023-03-08T02:17:25.775Z,925.19
2023-03-08T02:18:00.215Z,925.11
2023-03-08T02:19:00.266Z,925.12
2023-03-08T02:20:00.217Z,925.08
2023-03-08T02:21:00.191Z,925.07
2023-03-08T02:22:00.187Z,925.06
2023-03-08T02:23:00.183Z,925.01
2023-03-08T02:24:00.207Z,924.98
2023-03-08T02:25:00.151Z,925.00
2023-03-08T02:26:00.148Z,924.97
2023-03-08T02:27:00.167Z,924.94
2023-03-08T02:28:00.118Z,924.98
2023-03-08T02:29:00.146Z,924.91
2023-03-08T02:30:00.144Z,924.91
2023-03-08T02:31:00.157Z,924.93
2023-03-08T02:32:00.121Z,924.86
2023-03-08T02:33:00.115Z,924.89
2023-03-08T02:34:00.110Z,924.91
2023-03-08T02:35:00.048Z,924.91
2023-03-08T02:36:00.110Z,924.88
2023-03-08T02:37:00.044Z,924.82
2023-03-08T02:38:00.047Z,924.83
2023-03-08T02:39:00.118Z,924.78
2023-03-08T02:39:59.993Z,924.78
2023-03-08T02:41:00.001Z,924.77
2023-03-08T02:41:59.979Z,924.67
2023-03-08T02:42:59.988Z,924.67
2023-03-08T02:43:59.971Z,924.66
2023-03-08T02:44:59.949Z,924.60
2023-03-08T02:45:59.943Z,924.52
2023-03-08T02:47:00.156Z,924.53
2023-03-08T02:47:59.948Z,924.52
2023-03-08T02:48:59.930Z,924.51
2023-03-08T02:49:59.903Z,924.54
2023-03-08T02:50:59.891Z,924.64
2023-03-08T02:51:59.869Z,924.65
2023-03-08T02:52:59.853Z,924.63
2023-03-08T02:53:59.894Z,924.66
2023-03-08T02:54:59.844Z,924.68
2023-03-08T02:55:59.885Z,924.68
2023-03-08T02:56:59.881Z,924.69
2023-03-08T02:57:59.807Z,924.75
2023-03-08T02:58:59.822Z,924.72
2023-03-08T02:59:59.811Z,924.72
2023-03-08T03:00:59.845Z,924.74
2023-03-08T03:01:59.787Z,924.76
2023-03-08T03:02:59.761Z,924.75
2023-03-08T03:03:59.783Z,924.72
2023-03-08T03:04:59.803Z,924.72
2023-03-08T03:05:59.772Z,924.69
2023-03-08T03:06:59.759Z,924.66
2023-03-08T03:07:59.695Z,924.63
2023-03-08T03:08:59.686Z,924.62
2023-03-08T03:09:59.715Z,924.63
2023-03-08T03:10:59.689Z,924.65
2023-03-08T03:11:59.657Z,924.67
2023-03-08T03:12:59.646Z,924.67
2023-03-08T03:13:59.697Z,924.67
2023-03-08T03:14:59.636Z,924.67
2023-03-08T03:15:59.690Z,924.68
2023-03-08T03:16:59.716Z,924.68
2023-03-08T03:17:59.596Z,924.66
2023-03-08T03:18:59.617Z,924.62
2023-03-08T03:19:59.646Z,924.58
2023-03-08T03:20:59.562Z,924.60
2023-03-08T03:21:59.553Z,924.57
2023-03-08T03:22:59.558Z,924.55
2023-03-08T03:23:59.539Z,924.57
2023-03-08T03:24:59.516Z,924.57
2023-03-08T03:25:59.560Z,924.60
2023-03-08T03:26:59.556Z,924.58
2023-03-08T03:27:59.504Z,924.56
2023-03-08T03:28:59.543Z,924.51
2023-03-08T03:29:59.489Z,924.53
2023-03-08T03:30:59.466Z,924.52
2023-03-08T03:31:59.496Z,924.51
2023-03-08T03:32:59.502Z,924.49
2023-03-08T03:33:59.425Z,924.47
2023-03-08T03:34:59.424Z,924.45
2023-03-08T03:35:59.495Z,924.45
2023-03-08T03:36:59.400Z,924.51
2023-03-08T03:37:59.395Z,924.43
2023-03-08T03:38:59.410Z,924.43
2023-03-08T03:39:59.424Z,924.38
2023-03-08T03:40:59.382Z,924.40
2023-03-08T03:41:59.382Z,924.37
2023-03-08T03:42:59.332Z,924.35
2023-03-08T03:43:59.371Z,924.32
2023-03-08T03:44:59.330Z,924.32
2023-03-08T03:45:59.345Z,924.27
2023-03-08T03:47:20.352Z,924.33
2023-03-08T03:47:59.280Z,924.37
2023-03-08T03:48:59.275Z,924.30
2023-03-08T03:49:59.354Z,924.30
2023-03-08T03:50:59.271Z,924.33
2023-03-08T03:51:59.273Z,924.34
2023-03-08T03:52:59.242Z,924.38
2023-03-08T03:53:59.233Z,924.37
2023-03-08T03:54:59.251Z,924.35
2023-03-08T03:55:59.219Z,924.36
2023-03-08T03:56:59.204Z,924.30
2023-03-08T03:57:59.217Z,924.27
2023-03-08T03:58:59.197Z,924.21
2023-03-08T03:59:59.169Z,924.22
2023-03-08T04:00:59.172Z,924.23
2023-03-08T04:01:59.157Z,924.20
2023-03-08T04:02:59.169Z,924.24
2023-03-08T04:03:59.178Z,924.21
2023-03-08T04:04:59.151Z,924.20
2023-03-08T04:05:59.134Z,924.16
2023-03-08T04:06:59.099Z,924.14
2023-03-08T04:07:59.112Z,924.11
2023-03-08T04:08:59.074Z,924.06
2023-03-08T04:09:59.067Z,924.03
2023-03-08T04:10:59.074Z,924.04
2023-03-08T04:11:59.042Z,924.00
2023-03-08T04:12:59.759Z,923.88
2023-03-08T04:13:59.041Z,923.90
2023-03-08T04:14:59.066Z,923.89
2023-03-08T04:15:59.038Z,923.91
2023-03-08T04:16:59.015Z,923.86
2023-03-08T04:17:58.986Z,923.90
2023-03-08T04:18:58.996Z,923.89
2023-03-08T04:19:58.964Z,923.84
2023-03-08T04:21:06.609Z,923.83
2023-03-08T04:21:58.958Z,923.78
2023-03-08T04:22:58.950Z,923.78
2023-03-08T04:24:00.722Z,923.77
2023-03-08T04:24:58.915Z,923.75
2023-03-08T04:25:58.903Z,923.73
2023-03-08T04:26:58.897Z,923.72
2023-03-08T04:27:59.292Z,923.70
2023-03-08T04:28:58.873Z,923.72
2023-03-08T04:29:58.861Z,923.68
2023-03-08T04:30:58.871Z,923.69
2023-03-08T04:31:58.850Z,923.65
2023-03-08T04:32:58.831Z,923.66
2023-03-08T04:33:58.866Z,923.58
2023-03-08T04:34:58.843Z,923.59
2023-03-08T04:35:58.901Z,923.55
2023-03-08T04:36:58.798Z,923.51
2023-03-08T04:37:58.781Z,923.50
2023-03-08T04:38:58.806Z,923.47
2023-03-08T04:39:58.784Z,923.47
2023-03-08T04:40:58.776Z,923.46
2023-03-08T04:41:58.746Z,923.49
2023-03-08T04:42:58.737Z,923.48
2023-03-08T04:43:58.718Z,923.46
2023-03-08T04:44:58.728Z,923.48
2023-03-08T04:45:58.710Z,923.42
2023-03-08T04:46:58.833Z,923.41
2023-03-08T04:47:58.717Z,923.35
2023-03-08T04:48:58.667Z,923.36
2023-03-08T04:49:58.697Z,923.38
2023-03-08T04:50:58.646Z,923.37
2023-03-08T04:51:58.670Z,923.36
2023-03-08T04:52:58.635Z,923.36
2023-03-08T04:53:58.624Z,923.36
2023-03-08T04:54:58.624Z,923.31
2023-03-08T04:55:58.697Z,923.27
2023-03-08T04:56:58.621Z,923.28
2023-03-08T04:57:58.579Z,923.32
2023-03-08T04:58:58.570Z,923.25
2023-03-08T04:59:58.585Z,923.27
2023-03-08T05:00:58.631Z,923.28
2023-03-08T05:01:58.579Z,923.32
2023-03-08T05:02:58.539Z,923.29
2023-03-08T05:03:58.519Z,923.31
2023-03-08T05:04:58.543Z,923.27
2023-03-08T05:05:58.499Z,923.24
2023-03-08T05:06:58.526Z,923.21
2023-03-08T05:07:58.476Z,923.19
2023-03-08T05:08:58.478Z,923.27
2023-03-08T05:09:58.460Z,923.25
2023-03-08T05:11:00.621Z,923.26
2023-03-08T05:11:58.532Z,923.27
2023-03-08T05:12:58.442Z,923.24
2023-03-08T05:13:58.409Z,923.26
2023-03-08T05:14:58.432Z,923.26
2023-03-08T05:15:58.461Z,923.20
2023-03-08T05:16:58.412Z,923.18
2023-03-08T05:17:58.411Z,923.15
2023-03-08T05:18:58.373Z,923.16
2023-03-08T05:19:58.352Z,923.14
2023-03-08T05:20:58.374Z,923.14
2023-03-08T05:21:58.333Z,923.10
2023-03-08T05:22:59.532Z,923.10
2023-03-08T05:23:58.319Z,923.13
2023-03-08T05:24:59.279Z,923.09
2023-03-08T05:25:58.312Z,923.07
2023-03-08T05:26:58.296Z,922.99
2023-03-08T05:27:58.302Z,922.99
2023-03-08T05:28:58.272Z,923.05
2023-03-08T05:29:58.258Z,923.04
2023-03-08T05:30:58.264Z,923.02
2023-03-08T05:31:58.307Z,923.02
2023-03-08T05:32:58.238Z,923.05
2023-03-08T05:33:58.207Z,923.01
2023-03-08T05:34:58.223Z,922.95
2023-03-08T05:35:58.249Z,923.00
2023-03-08T05:36:58.199Z,922.98
2023-03-08T05:37:58.179Z,922.96
2023-03-08T05:38:58.156Z,922.93
2023-03-08T05:39:58.149Z,922.97
2023-03-08T05:40:58.133Z,922.94
2023-03-08T05:41:58.167Z,923.00
2023-03-08T05:42:58.117Z,923.00
2023-03-08T05:43:58.137Z,923.00
2023-03-08T05:44:58.117Z,922.98
2023-03-08T05:45:58.312Z,923.02
2023-03-08T05:46:58.116Z,923.05
2023-03-08T05:47:58.068Z,923.06
2023-03-08T05:48:58.089Z,923.07
2023-03-08T05:49:58.104Z,923.05
2023-03-08T05:50:58.078Z,923.01
2023-03-08T05:51:58.025Z,922.99
2023-03-08T05:52:58.051Z,922.95
2023-03-08T05:53:58.005Z,922.91
2023-03-08T05:54:58.024Z,922.83
2023-03-08T05:55:58.028Z,922.78
2023-03-08T05:56:57.978Z,922.81
2023-03-08T05:57:57.997Z,922.81
2023-03-08T05:58:57.984Z,922.80
2023-03-08T05:59:57.971Z,922.78
2023-03-08T06:00:57.948Z,922.76
2023-03-08T06:01:57.963Z,922.79
2023-03-08T06:02:57.996Z,922.76
2023-03-08T06:03:57.934Z,922.78
2023-03-08T06:04:57.879Z,922.80
2023-03-08T06:05:58.277Z,922.82
2023-03-08T06:06:57.858Z,922.80
2023-03-08T06:07:57.879Z,922.79
2023-03-08T06:08:57.865Z,922.79
2023-03-08T06:09:57.855Z,922.78
2023-03-08T06:10:57.829Z,922.82
2023-03-08T06:11:57.847Z,922.79
2023-03-08T06:12:57.797Z,922.83
2023-03-08T06:13:57.837Z,922.81
2023-03-08T06:14:57.879Z,922.80
2023-03-08T06:15:57.806Z,922.82
2023-03-08T06:17:02.468Z,922.84
2023-03-08T06:17:57.773Z,922.80
2023-03-08T06:18:57.738Z,922.83
2023-03-08T06:19:57.761Z,922.84
2023-03-08T06:20:57.719Z,922.78
2023-03-08T06:21:57.707Z,922.79
2023-03-08T06:22:57.702Z,922.83
2023-03-08T06:23:57.707Z,922.84
2023-03-08T06:24:57.670Z,922.81
2023-03-08T06:25:57.702Z,922.76
2023-03-08T06:26:57.651Z,922.86
2023-03-08T06:27:57.650Z,922.82
2023-03-08T06:28:57.637Z,922.86
2023-03-08T06:29:57.638Z,922.84
2023-03-08T06:30:57.765Z,922.91
2023-03-08T06:31:57.652Z,922.88
2023-03-08T06:32:57.655Z,922.90
2023-03-08T06:33:57.640Z,922.90
2023-03-08T06:34:57.575Z,922.91
2023-03-08T06:35:57.630Z,922.91
2023-03-08T06:36:57.563Z,922.92
2023-03-08T06:37:57.582Z,922.96
2023-03-08T06:38:57.562Z,922.95
2023-03-08T06:39:57.540Z,922.93
2023-03-08T06:40:57.545Z,922.85
2023-03-08T06:41:57.513Z,922.92
2023-03-08T06:42:57.496Z,922.91
2023-03-08T06:43:57.559Z,922.89
2023-03-08T06:44:57.472Z,922.93
2023-03-08T06:45:57.490Z,923.00
2023-03-08T06:46:57.504Z,922.95
2023-03-08T06:47:57.764Z,922.94
2023-03-08T06:48:58.065Z,923.01
2023-03-08T06:49:57.498Z,923.02
2023-03-08T06:50:57.688Z,922.96
2023-03-08T06:51:57.422Z,922.93
2023-03-08T06:52:57.705Z,922.93
2023-03-08T06:53:57.385Z,922.85
2023-03-08T06:54:57.373Z,922.87
2023-03-08T06:55:57.506Z,922.78
2023-03-08T06:56:57.405Z,922.88
2023-03-08T06:57:57.381Z,922.88
2023-03-08T06:58:57.331Z,922.86
2023-03-08T06:59:57.359Z,922.82
2023-03-08T07:00:57.449Z,922.86
2023-03-08T07:01:57.308Z,922.85
2023-03-08T07:02:57.413Z,922.82
2023-03-08T07:03:57.712Z,922.78
2023-03-08T07:04:57.386Z,922.82
2023-03-08T07:05:57.322Z,922.78
2023-03-08T07:06:57.309Z,922.71
2023-03-08T07:07:57.257Z,922.79
2023-03-08T07:08:57.225Z,922.79
2023-03-08T07:09:57.244Z,922.78
2023-03-08T07:10:57.234Z,922.84
2023-03-08T07:11:57.242Z,922.79
2023-03-08T07:12:57.194Z,922.80
2023-03-08T07:13:57.224Z,922.77
2023-03-08T07:14:57.170Z,922.83
2023-03-08T07:15:57.384Z,922.83
2023-03-08T07:16:57.131Z,922.81
2023-03-08T07:17:57.208Z,922.79
2023-03-08T07:18:57.124Z,922.81
2023-03-08T07:19:57.162Z,922.81
2023-03-08T07:20:57.097Z,922.72
2023-03-08T07:21:57.309Z,922.78
2023-03-08T07:22:57.119Z,922.77
2023-03-08T07:23:57.089Z,922.69
2023-03-08T07:24:57.070Z,922.75
2023-03-08T07:25:57.043Z,922.69
2023-03-08T07:26:57.050Z,922.63
2023-03-08T07:27:57.065Z,922.64
2023-03-08T07:28:57.004Z,922.67
2023-03-08T07:29:57.075Z,922.66
2023-03-08T07:30:56.982Z,922.61
2023-03-08T07:31:57.006Z,922.54
2023-03-08T07:32:57.015Z,922.54
2023-03-08T07:33:57.094Z,922.52
2023-03-08T07:34:56.946Z,922.56
2023-03-08T07:35:57.057Z,922.56
2023-03-08T07:36:56.982Z,922.49
2023-03-08T07:37:57.000Z,922.50
2023-03-08T07:38:56.957Z,922.45
2023-03-08T07:39:56.943Z,922.54
2023-03-08T07:40:56.982Z,922.47
2023-03-08T07:41:56.895Z,922.49
2023-03-08T07:42:56.921Z,922.52
2023-03-08T07:43:56.853Z,922.54
2023-03-08T07:44:56.870Z,922.58
2023-03-08T07:45:57.013Z,922.57
2023-03-08T07:46:56.831Z,922.51
2023-03-08T07:47:56.837Z,922.51
2023-03-08T07:48:56.803Z,922.36
2023-03-08T07:49:56.794Z,922.32
2023-03-08T07:50:56.822Z,922.34
2023-03-08T07:51:56.846Z,922.32
2023-03-08T07:52:56.764Z,922.23
2023-03-08T07:53:56.818Z,922.16
2023-03-08T07:54:56.766Z,922.11
2023-03-08T07:55:56.753Z,922.13
2023-03-08T07:56:56.752Z,922.06
2023-03-08T07:57:56.871Z,921.96
2023-03-08T07:58:56.871Z,921.93
2023-03-08T07:59:56.695Z,921.88
2023-03-08T08:00:56.666Z,921.84
2023-03-08T08:01:56.719Z,921.81
2023-03-08T08:02:56.729Z,921.83
2023-03-08T08:03:56.836Z,921.81
2023-03-08T08:04:56.705Z,921.64
2023-03-08T08:05:56.676Z,921.62
2023-03-08T08:06:56.671Z,921.52
2023-03-08T08:07:56.741Z,921.45
2023-03-08T08:08:56.633Z,921.38
2023-03-08T08:09:56.646Z,921.46
2023-03-08T08:10:56.600Z,921.43
2023-03-08T08:11:56.557Z,921.42
2023-03-08T08:12:56.552Z,921.35
2023-03-08T08:13:56.537Z,921.34
2023-03-08T08:14:56.556Z,921.27
2023-03-08T08:15:56.526Z,921.23
2023-03-08T08:16:56.543Z,921.18
2023-03-08T08:17:56.535Z,921.17
2023-03-08T08:18:56.514Z,921.13
2023-03-08T08:19:56.477Z,921.16
2023-03-08T08:20:56.524Z,921.24
2023-03-08T08:21:56.470Z,921.20
2023-03-08T08:22:56.460Z,921.21
2023-03-08T08:23:56.454Z,921.18
2023-03-08T08:24:56.583Z,921.20
2023-03-08T08:25:56.521Z,921.21
2023-03-08T08:26:56.413Z,921.18
2023-03-08T08:27:56.387Z,921.16
2023-03-08T08:28:56.382Z,921.10
2023-03-08T08:29:56.365Z,921.03
2023-03-08T08:30:56.381Z,921.01
2023-03-08T08:31:56.362Z,920.99
2023-03-08T08:32:56.358Z,920.92
2023-03-08T08:33:56.324Z,920.93
2023-03-08T08:34:56.322Z,920.87
2023-03-08T08:35:56.348Z,920.88
2023-03-08T08:36:56.310Z,920.82
2023-03-08T08:37:56.285Z,920.80
2023-03-08T08:38:56.346Z,920.83
2023-03-08T08:39:56.313Z,920.78
2023-03-08T08:40:56.268Z,920.86
2023-03-08T08:41:56.272Z,920.81
2023-03-08T08:42:56.265Z,920.79
2023-03-08T08:43:56.223Z,920.79
2023-03-08T08:44:56.231Z,920.80
2023-03-08T08:45:56.286Z,920.75
2023-03-08T08:46:56.190Z,920.77
2023-03-08T08:47:56.241Z,920.71
2023-03-08T08:48:56.181Z,920.70
2023-03-08T08:49:56.320Z,920.68
2023-03-08T08:50:56.212Z,920.67
2023-03-08T08:51:56.147Z,920.71
2023-03-08T08:52:56.225Z,920.76
2023-03-08T08:53:56.115Z,920.78
2023-03-08T08:54:56.158Z,920.76
2023-03-08T08:55:56.109Z,920.76
2023-03-08T08:56:56.085Z,920.76
2023-03-08T08:57:56.079Z,920.81
2023-03-08T08:58:56.098Z,920.76
2023-03-08T08:59:56.148Z,920.72
2023-03-08T09:00:56.069Z,920.73
2023-03-08T09:01:56.030Z,920.67
2023-03-08T09:02:56.064Z,920.68
2023-03-08T09:03:56.108Z,920.61
2023-03-08T09:04:56.034Z,920.60
2023-03-08T09:05:56.034Z,920.51
2023-03-08T09:06:55.973Z,920.43
2023-03-08T09:07:55.986Z,920.38
2023-03-08T09:08:55.950Z,920.44
2023-03-08T09:09:56.015Z,920.40
2023-03-08T09:10:55.925Z,920.35
2023-03-08T09:11:56.227Z,920.45
2023-03-08T09:12:57.773Z,920.47
2023-03-08T09:13:55.905Z,920.48
2023-03-08T09:14:55.938Z,920.41
2023-03-08T09:15:55.882Z,920.46
2023-03-08T09:16:55.942Z,920.53
2023-03-08T09:17:55.883Z,920.60
2023-03-08T09:18:55.902Z,920.69
2023-03-08T09:19:55.848Z,920.69
2023-03-08T09:20:55.837Z,920.74
2023-03-08T09:22:03.423Z,920.87
2023-03-08T09:22:55.848Z,920.97
2023-03-08T09:23:55.835Z,920.97
2023-03-08T09:24:55.784Z,920.99
2023-03-08T09:25:55.776Z,920.97
2023-03-08T09:26:55.762Z,921.00
2023-03-08T09:27:55.800Z,921.02
2023-03-08T09:28:55.746Z,921.11
2023-03-08T09:29:55.795Z,921.08
2023-03-08T09:30:55.736Z,921.07
2023-03-08T09:31:57.708Z,921.05
2023-03-08T09:32:55.768Z,920.99
2023-03-08T09:33:55.718Z,920.97
2023-03-08T09:34:55.681Z,920.91
2023-03-08T09:35:55.799Z,920.91
2023-03-08T09:36:55.664Z,920.89
2023-03-08T09:37:56.650Z,920.93
2023-03-08T09:38:55.640Z,920.84
2023-03-08T09:39:55.671Z,920.76
2023-03-08T09:40:55.691Z,920.69
2023-03-08T09:41:55.695Z,920.66
2023-03-08T09:42:55.612Z,920.58
2023-03-08T09:43:55.617Z,920.54
2023-03-08T09:44:55.593Z,920.54
2023-03-08T09:45:55.679Z,920.61
2023-03-08T09:46:55.557Z,920.48
2023-03-08T09:47:56.406Z,920.49
2023-03-08T09:48:55.538Z,920.51
2023-03-08T09:49:55.585Z,920.58
2023-03-08T09:50:55.512Z,920.57
2023-03-08T09:51:55.537Z,920.60
2023-03-08T09:52:55.493Z,920.67
2023-03-08T09:53:55.531Z,920.57
2023-03-08T09:54:55.511Z,920.59
2023-03-08T09:55:55.518Z,920.47
2023-03-08T09:56:55.478Z,920.53
2023-03-08T09:57:55.507Z,920.55
2023-03-08T09:58:55.459Z,920.51
2023-03-08T09:59:55.473Z,920.51
2023-03-08T10:00:55.477Z,920.55
2023-03-08T10:01:55.391Z,920.49
2023-03-08T10:02:55.446Z,920.44
2023-03-08T10:03:55.392Z,920.35
2023-03-08T10:05:11.554Z,920.41
2023-03-08T10:05:56.409Z,920.43
2023-03-08T10:06:55.341Z,920.47
2023-03-08T10:07:55.324Z,920.26
2023-03-08T10:08:55.320Z,920.42
2023-03-08T10:09:55.342Z,920.38
2023-03-08T10:10:55.363Z,920.36
2023-03-08T10:11:55.351Z,920.34
2023-03-08T10:12:55.292Z,920.28
2023-03-08T10:13:55.282Z,920.25
2023-03-08T10:14:55.273Z,920.22
2023-03-08T10:15:55.284Z,920.19
2023-03-08T10:16:55.303Z,920.17
2023-03-08T10:17:55.236Z,920.24
2023-03-08T10:18:55.210Z,920.16
2023-03-08T10:19:55.233Z,920.17
2023-03-08T10:20:55.184Z,920.25
2023-03-08T10:21:55.190Z,920.20
2023-03-08T10:22:55.157Z,920.20
2023-03-08T10:23:55.150Z,920.20
2023-03-08T10:24:55.220Z,920.23
2023-03-08T10:25:55.160Z,920.22
2023-03-08T10:26:55.133Z,920.28
2023-03-08T10:27:55.110Z,920.33
2023-03-08T10:28:55.103Z,920.28
2023-03-08T10:29:55.163Z,920.33
2023-03-08T10:30:55.135Z,920.39
2023-03-08T10:31:55.096Z,920.38
2023-03-08T10:32:56.511Z,920.36
2023-03-08T10:33:55.039Z,920.29
2023-03-08T10:34:55.081Z,920.25
2023-03-08T10:35:55.168Z,920.20
2023-03-08T10:36:55.049Z,920.19
2023-03-08T10:37:55.048Z,920.03
2023-03-08T10:38:55.035Z,920.03
2023-03-08T10:39:55.005Z,920.03
2023-03-08T10:40:55.022Z,920.06
2023-03-08T10:41:54.989Z,919.93
2023-03-08T10:42:55.064Z,919.86
2023-03-08T10:43:54.944Z,919.92
2023-03-08T10:44:55.083Z,919.95
2023-03-08T10:45:55.055Z,919.92
2023-03-08T10:46:59.961Z,920.03
2023-03-08T10:47:54.892Z,920.03
2023-03-08T10:48:54.934Z,920.06
2023-03-08T10:49:54.874Z,920.11
2023-03-08T10:50:54.886Z,920.08
2023-03-08T10:51:54.890Z,920.11
2023-03-08T10:52:54.952Z,920.12
2023-03-08T10:53:54.844Z,920.09
2023-03-08T10:54:54.827Z,920.17
2023-03-08T10:55:54.852Z,920.12
2023-03-08T10:56:54.920Z,920.10
2023-03-08T10:57:54.855Z,920.18
2023-03-08T10:58:54.782Z,920.10
2023-03-08T10:59:54.794Z,920.04
2023-03-08T11:00:54.835Z,920.12
2023-03-08T11:01:54.781Z,920.08
2023-03-08T11:02:54.786Z,920.22
2023-03-08T11:03:54.736Z,920.09
2023-03-08T11:04:54.798Z,920.14
2023-03-08T11:05:54.705Z,919.98
2023-03-08T11:06:54.749Z,920.07
2023-03-08T11:07:54.692Z,920.09
2023-03-08T11:08:54.718Z,920.10
2023-03-08T11:09:54.720Z,919.99
2023-03-08T11:10:54.703Z,920.14
2023-03-08T11:11:54.651Z,920.08
2023-03-08T11:12:54.698Z,919.94
2023-03-08T11:13:54.627Z,919.92
2023-03-08T11:14:54.674Z,920.04
2023-03-08T11:15:54.696Z,919.95
2023-03-08T11:16:54.679Z,919.94
2023-03-08T11:17:54.621Z,919.93
2023-03-08T11:18:54.707Z,919.93
2023-03-08T11:19:54.558Z,919.91
2023-03-08T11:20:54.555Z,919.89
2023-03-08T11:21:54.536Z,919.86
2023-03-08T11:22:54.553Z,919.85
2023-03-08T11:23:54.526Z,919.88
2023-03-08T11:24:54.520Z,919.89
2023-03-08T11:25:54.497Z,920.00
2023-03-08T11:26:54.488Z,919.94
2023-03-08T11:27:54.548Z,919.87
2023-03-08T11:28:54.561Z,919.89
2023-03-08T11:29:54.477Z,919.96
2023-03-08T11:30:54.478Z,919.89
2023-03-08T11:31:54.436Z,919.91
2023-03-08T11:32:54.647Z,919.91
2023-03-08T11:33:54.658Z,919.94
2023-03-08T11:34:54.448Z,919.96
2023-03-08T11:35:54.457Z,919.94
2023-03-08T11:36:54.386Z,919.83
2023-03-08T11:37:54.397Z,919.97
2023-03-08T11:38:54.366Z,919.85
2023-03-08T11:39:54.510Z,919.84
2023-03-08T11:40:54.327Z,919.89
2023-03-08T11:41:54.329Z,919.86
2023-03-08T11:42:54.332Z,919.97
2023-03-08T11:43:54.289Z,919.98
2023-03-08T11:44:54.310Z,919.91
2023-03-08T11:45:54.334Z,919.86
2023-03-08T11:46:54.398Z,919.88
2023-03-08T11:47:54.271Z,919.92
2023-03-08T11:48:54.298Z,919.88
2023-03-08T11:49:54.259Z,919.85
2023-03-08T11:50:54.298Z,919.95
2023-03-08T11:51:54.214Z,919.88
2023-03-08T11:52:54.201Z,920.03
2023-03-08T11:53:54.294Z,919.96
2023-03-08T11:54:54.228Z,920.05
2023-03-08T11:55:54.165Z,920.03
2023-03-08T11:56:54.207Z,920.03
2023-03-08T11:57:54.162Z,919.93
2023-03-08T11:58:54.157Z,920.12
2023-03-08T11:59:54.139Z,920.08
2023-03-08T12:00:54.120Z,920.06
2023-03-08T12:01:54.133Z,920.11
2023-03-08T12:02:54.111Z,920.16
2023-03-08T12:03:54.273Z,920.08
2023-03-08T12:04:54.341Z,920.02
2023-03-08T12:05:54.190Z,920.05
2023-03-08T12:06:54.274Z,920.21
2023-03-08T12:07:54.098Z,919.98
2023-03-08T12:08:54.051Z,920.01
2023-03-08T12:09:54.064Z,920.16
2023-03-08T12:10:54.019Z,920.12
2023-03-08T12:11:53.984Z,920.17
2023-03-08T12:12:53.987Z,920.15
2023-03-08T12:13:54.025Z,920.18
2023-03-08T12:14:53.981Z,920.06
2023-03-08T12:15:54.047Z,920.16
2023-03-08T12:16:57.597Z,920.20
2023-03-08T12:17:53.973Z,920.16
2023-03-08T12:18:53.941Z,919.91
2023-03-08T12:19:54.039Z,920.15
2023-03-08T12:20:53.929Z,920.25
2023-03-08T12:21:53.952Z,920.13
2023-03-08T12:22:54.034Z,920.19
2023-03-08T12:23:53.949Z,920.09
2023-03-08T12:24:53.871Z,920.18
2023-03-08T12:25:54.123Z,920.05
2023-03-08T12:26:53.898Z,920.13
2023-03-08T12:27:53.856Z,920.06